Time;durP1;ratioP1;P1;durP2;ratioP2;P2;SDS_P1;SDS_P2;PMS_P1;PMS_P2;Temp;Humidity;BMP_temperature;BMP_pressure;BME280_temperature;BME280_humidity;BME280_pressure;Samples;Min_cycle;Max_cycle;Signal;HPM_P1;HPM_P2
2023/01/24 00:01:55;;;;;;;26.55;14.80;;;;;;;1.57;89.57;103746.00;4994435;28;20027;-88
2023/01/24 00:04:42;;;;;;;25.98;14.20;;;;;;;1.57;89.02;103738.31;4993906;28;20032;-88
2023/01/24 00:07:06;;;;;;;26.17;15.15;;;;;;;1.57;89.16;103740.88;4993525;28;20037;-88
2023/01/24 00:09:41;;;;;;;25.02;14.02;;;;;;;1.61;89.70;103744.53;4994093;28;20387;-87
2023/01/24 00:12:09;;;;;;;26.05;14.13;;;;;;;1.59;89.89;103733.28;4992893;28;20041;-87
2023/01/24 00:14:43;;;;;;;25.45;13.70;;;;;;;1.60;90.05;103740.19;4994237;28;20026;-88
2023/01/24 00:17:09;;;;;;;28.23;15.27;;;;;;;1.58;88.77;103746.88;4993234;28;20042;-88
2023/01/24 00:19:37;;;;;;;25.75;14.60;;;;;;;1.58;89.14;103750.28;4993764;28;20101;-87
2023/01/24 00:22:03;;;;;;;26.27;14.25;;;;;;;1.60;89.34;103752.97;4994021;28;20033;-87
2023/01/24 00:24:29;;;;;;;26.83;15.13;;;;;;;1.57;89.31;103748.56;4996826;28;20466;-87
2023/01/24 00:26:57;;;;;;;25.63;14.15;;;;;;;1.58;88.79;103734.94;4997665;28;20026;-88
2023/01/24 00:29:28;;;;;;;25.38;14.23;;;;;;;1.57;89.09;103734.84;4997238;28;20042;-88
2023/01/24 00:32:09;;;;;;;27.60;15.00;;;;;;;1.57;89.16;103733.19;4997313;28;20026;-87
2023/01/24 00:34:35;;;;;;;25.42;13.77;;;;;;;1.60;89.32;103732.50;4997126;28;20062;-88
2023/01/24 00:37:00;;;;;;;27.75;15.05;;;;;;;1.58;89.51;103729.81;4997967;28;20098;-88
2023/01/24 00:39:26;;;;;;;28.30;14.48;;;;;;;1.57;89.30;103722.94;4997453;28;20026;-88
2023/01/24 00:41:57;;;;;;;25.63;14.25;;;;;;;1.58;89.13;103722.13;4997727;28;20216;-87
2023/01/24 00:44:31;;;;;;;27.40;14.77;;;;;;;1.54;88.81;103718.47;4997447;28;20573;-88
2023/01/24 00:46:56;;;;;;;27.42;15.23;;;;;;;1.54;89.51;103712.50;4996877;28;20019;-88
2023/01/24 00:49:21;;;;;;;27.88;14.82;;;;;;;1.53;89.68;103714.16;4991328;28;20045;-88
2023/01/24 00:51:47;;;;;;;27.83;15.27;;;;;;;1.53;89.62;103716.72;4997472;28;20057;-87
2023/01/24 00:54:18;;;;;;;27.48;14.57;;;;;;;1.52;89.49;103719.16;4995986;28;20538;-89
2023/01/24 00:56:55;;;;;;;28.17;14.77;;;;;;;1.48;89.33;103715.53;4997563;28;20037;-89
2023/01/24 00:59:24;;;;;;;26.95;15.05;;;;;;;1.50;89.34;103711.41;4996275;28;20035;-88
2023/01/24 01:01:55;;;;;;;27.88;15.45;;;;;;;1.47;88.90;103720.50;4997326;28;20109;-86
2023/01/24 01:04:35;;;;;;;27.23;15.05;;;;;;;1.48;89.19;103712.06;4996272;28;20034;-87
2023/01/24 01:07:13;;;;;;;27.35;14.38;;;;;;;1.51;88.83;103709.72;4996484;28;20028;-89
2023/01/24 01:09:41;;;;;;;25.67;13.90;;;;;;;1.47;88.48;103705.16;4997152;28;20031;-88
2023/01/24 01:12:07;;;;;;;25.45;13.73;;;;;;;1.48;88.67;103706.94;4996860;28;20022;-87
2023/01/24 01:14:33;;;;;;;26.73;14.10;;;;;;;1.47;89.06;103708.63;4996616;28;20379;-88
2023/01/24 01:16:58;;;;;;;25.15;13.40;;;;;;;1.46;88.22;103701.72;4997130;28;20112;-88
2023/01/24 01:19:24;;;;;;;25.33;13.60;;;;;;;1.44;88.58;103695.59;4996721;28;20081;-87
2023/01/24 01:21:49;;;;;;;24.60;13.43;;;;;;;1.47;88.80;103705.16;4996565;28;20089;-87
2023/01/24 01:24:18;;;;;;;24.20;12.80;;;;;;;1.48;89.18;103709.50;4996046;28;20061;-88
2023/01/24 01:26:55;;;;;;;24.30;12.70;;;;;;;1.47;89.28;103692.34;4996662;28;20030;-87
2023/01/24 01:29:20;;;;;;;25.35;12.95;;;;;;;1.46;89.08;103698.28;4996172;28;20058;-86
2023/01/24 01:31:49;;;;;;;25.50;13.32;;;;;;;1.45;88.78;103709.31;4996323;28;20045;-87
2023/01/24 01:34:14;;;;;;;24.98;13.15;;;;;;;1.47;88.25;103717.97;4996231;28;20046;-86
2023/01/24 01:36:39;;;;;;;23.90;12.65;;;;;;;1.48;88.81;103719.72;4995007;28;20058;-87
2023/01/24 01:39:08;;;;;;;24.58;13.13;;;;;;;1.48;88.61;103715.53;4995816;28;20030;-87
2023/01/24 01:41:45;;;;;;;25.80;13.30;;;;;;;1.46;89.34;103708.53;4995721;28;20053;-87
2023/01/24 01:44:38;;;;;;;23.80;12.85;;;;;;;1.46;88.71;103714.53;4996325;28;20487;-87
2023/01/24 01:47:24;;;;;;;25.80;14.15;;;;;;;1.45;88.53;103711.88;4996439;28;20442;-87
2023/01/24 01:50:15;;;;;;;25.05;13.10;;;;;;;1.45;89.21;103705.06;4995646;28;20055;-88
2023/01/24 01:52:42;;;;;;;24.90;12.93;;;;;;;1.44;89.22;103710.09;4986953;28;20077;-87
2023/01/24 01:55:15;;;;;;;23.92;12.98;;;;;;;1.45;89.69;103711.88;4996357;28;20015;-87
2023/01/24 01:57:41;;;;;;;26.50;13.77;;;;;;;1.41;89.34;103710.75;4996172;28;20026;-87
2023/01/24 02:00:12;;;;;;;24.90;13.25;;;;;;;1.46;90.18;103703.41;4995852;28;20026;-87
2023/01/24 02:02:41;;;;;;;24.95;13.70;;;;;;;1.43;90.48;103703.19;4995586;28;20137;-87
2023/01/24 02:05:09;;;;;;;27.08;14.20;;;;;;;1.44;89.93;103712.66;5009432;28;20026;-87
2023/01/24 02:07:50;;;;;;;26.80;14.55;;;;;;;1.42;90.27;103709.09;5000109;28;20032;-89
2023/01/24 02:10:17;;;;;;;25.73;13.43;;;;;;;1.44;90.59;103699.84;4995518;28;20109;-87
2023/01/24 02:12:46;;;;;;;27.45;15.02;;;;;;;1.43;90.35;103705.75;4995636;28;20022;-88
2023/01/24 02:18:03;;;;;;;28.10;14.75;;;;;;;1.40;90.45;103698.75;4995775;28;20049;-87
2023/01/24 02:20:31;;;;;;;26.23;14.70;;;;;;;1.42;90.68;103698.84;4995781;28;20069;-87
2023/01/24 02:23:02;;;;;;;28.58;15.95;;;;;;;1.38;90.54;103700.31;4995259;28;20022;-87
2023/01/24 02:25:42;;;;;;;27.80;15.70;;;;;;;1.38;90.85;103695.19;4994881;28;20023;-87
2023/01/24 02:28:08;;;;;;;29.38;16.27;;;;;;;1.37;90.97;103696.84;4995284;28;20438;-87
2023/01/24 02:30:36;;;;;;;28.83;16.00;;;;;;;1.37;91.34;103699.41;4996580;28;20030;-88
2023/01/24 02:33:19;;;;;;;28.63;15.80;;;;;;;1.34;91.57;103700.88;4995191;28;20022;-87
2023/01/24 02:35:46;;;;;;;30.02;16.63;;;;;;;1.33;91.34;103699.09;4995121;28;20521;-87
2023/01/24 02:38:19;;;;;;;29.23;16.15;;;;;;;1.33;91.86;103704.22;4994913;28;20093;-87
2023/01/24 02:40:48;;;;;;;29.17;16.70;;;;;;;1.35;91.81;103700.09;4995361;28;20030;-87
2023/01/24 02:43:15;;;;;;;28.48;16.20;;;;;;;1.30;91.58;103696.31;4975835;28;20373;-87
2023/01/24 02:45:40;;;;;;;28.67;15.60;;;;;;;1.35;91.52;103697.53;4975634;28;20026;-89
2023/01/24 02:48:05;;;;;;;28.08;15.43;;;;;;;1.31;91.49;103699.00;4979547;28;20026;-86
2023/01/24 02:53:31;;;;;;;28.40;15.80;;;;;;;1.30;91.95;103704.00;4994727;28;20033;-87
2023/01/24 02:58:46;;;;;;;28.23;15.20;;;;;;;1.28;92.20;103700.47;4994980;28;20085;-85
2023/01/24 03:01:14;;;;;;;25.30;14.35;;;;;;;1.32;91.84;103703.34;4994310;28;20026;-87
2023/01/24 03:03:40;;;;;;;27.10;15.23;;;;;;;1.30;91.67;103701.44;4994709;28;20030;-87
2023/01/24 03:06:06;;;;;;;27.53;15.50;;;;;;;1.29;92.07;103700.56;4993936;28;20022;-87
2023/01/24 03:08:33;;;;;;;27.20;14.40;;;;;;;1.30;92.23;103693.75;4994740;28;20400;-87
2023/01/24 03:10:59;;;;;;;28.80;15.95;;;;;;;1.27;91.87;103696.13;4994441;28;20037;-87
2023/01/24 03:35:17;;;;;;;30.70;17.52;;;;;;;1.17;92.22;103695.50;5014932;28;20126;-89
2023/01/24 03:40:27;;;;;;;30.05;17.33;;;;;;;1.09;92.77;103694.06;5014005;28;20552;-88
2023/01/24 03:42:52;;;;;;;29.90;16.73;;;;;;;1.08;92.85;103693.19;5013454;28;20033;-88
2023/01/24 03:45:20;;;;;;;28.83;16.42;;;;;;;1.11;93.38;103689.06;5013918;28;20105;-88
2023/01/24 03:47:54;;;;;;;29.17;16.95;;;;;;;1.04;92.96;103680.94;5014103;28;20038;-89
2023/01/24 03:53:17;;;;;;;27.02;14.98;;;;;;;1.10;93.16;103689.84;5014174;28;20068;-87
2023/01/24 03:55:42;;;;;;;29.40;16.52;;;;;;;1.08;93.52;103694.84;5013597;28;20110;-88
2023/01/24 03:58:08;;;;;;;30.25;16.67;;;;;;;1.03;93.51;103702.19;5014014;28;20050;-87
2023/01/24 04:00:34;;;;;;;29.00;16.23;;;;;;;1.06;93.64;103694.72;5017119;28;20033;-88
2023/01/24 04:03:00;;;;;;;28.17;15.63;;;;;;;1.05;93.86;103685.28;5017584;28;20032;-88
2023/01/24 04:05:25;;;;;;;28.58;16.50;;;;;;;1.04;93.94;103685.19;5017520;28;20030;-87
2023/01/24 04:07:52;;;;;;;29.33;16.75;;;;;;;1.04;93.90;103696.28;5017958;28;20113;-88
2023/01/24 04:10:18;;;;;;;27.65;15.32;;;;;;;1.11;93.50;103697.63;5017248;28;20061;-88
2023/01/24 04:12:43;;;;;;;28.50;15.90;;;;;;;1.01;92.97;103697.75;5017297;28;20018;-88
2023/01/24 04:15:15;;;;;;;28.13;15.65;;;;;;;1.03;92.81;103691.94;5008227;28;20050;-87
2023/01/24 04:17:40;;;;;;;29.52;16.10;;;;;;;0.97;92.83;103700.88;4997399;28;20061;-87
2023/01/24 04:20:06;;;;;;;28.85;16.10;;;;;;;0.97;93.47;103694.09;4997744;28;20026;-88
2023/01/24 04:22:31;;;;;;;28.10;15.85;;;;;;;0.98;93.34;103688.19;4997834;28;20030;-87
2023/01/24 04:24:56;;;;;;;30.60;16.73;;;;;;;0.94;93.87;103691.31;4996859;28;20360;-87
2023/01/24 04:27:22;;;;;;;28.92;15.98;;;;;;;0.96;94.05;103699.13;4997741;28;20061;-87
2023/01/24 04:29:47;;;;;;;27.10;14.93;;;;;;;0.96;94.16;103694.88;4997388;28;20026;-87
2023/01/24 04:32:22;;;;;;;27.90;15.52;;;;;;;0.96;94.46;103689.75;4996821;28;20034;-87
2023/01/24 04:34:47;;;;;;;27.10;14.80;;;;;;;0.98;94.59;103687.28;4997398;28;20099;-87
2023/01/24 04:37:18;;;;;;;28.83;15.90;;;;;;;0.94;93.92;103693.88;4997187;28;20168;-88
2023/01/24 04:39:46;;;;;;;28.17;15.65;;;;;;;0.90;94.13;103697.88;4998788;28;20442;-87
2023/01/24 04:42:12;;;;;;;28.67;16.38;;;;;;;0.87;93.37;103701.91;4997367;28;20030;-88
2023/01/24 04:44:37;;;;;;;26.50;14.75;;;;;;;0.92;93.99;103697.97;4997229;28;20109;-87
2023/01/24 04:47:05;;;;;;;28.58;15.63;;;;;;;0.88;94.32;103693.44;4996583;28;20030;-87
2023/01/24 04:49:30;;;;;;;27.77;16.05;;;;;;;0.89;93.96;103698.66;4997548;28;20105;-87
2023/01/24 04:51:56;;;;;;;27.83;15.48;;;;;;;0.86;93.78;103695.88;4996717;28;20558;-87
2023/01/24 04:54:21;;;;;;;28.02;15.55;;;;;;;0.89;94.11;103705.47;4996549;28;20027;-87
2023/01/24 04:56:55;;;;;;;28.42;16.60;;;;;;;0.86;94.05;103702.69;4996962;28;20030;-87
2023/01/24 04:59:21;;;;;;;27.05;15.15;;;;;;;0.87;93.77;103704.47;4996715;28;20122;-87
2023/01/24 05:01:47;;;;;;;28.75;15.93;;;;;;;0.80;93.88;103702.22;4997417;28;20121;-88
2023/01/24 05:04:12;;;;;;;29.75;16.83;;;;;;;0.82;93.64;103701.59;4996499;28;20064;-88
2023/01/24 05:06:38;;;;;;;27.67;15.23;;;;;;;0.85;93.80;103698.34;4996381;28;20046;-87
2023/01/24 05:09:03;;;;;;;27.77;15.48;;;;;;;0.86;93.94;103703.56;4996514;28;20029;-85
2023/01/24 05:11:29;;;;;;;28.40;15.27;;;;;;;0.82;93.74;103696.47;4994931;28;20023;-87
2023/01/24 05:13:57;;;;;;;27.63;15.52;;;;;;;0.82;93.63;103706.69;4996451;28;20494;-87
2023/01/24 05:16:25;;;;;;;26.98;14.63;;;;;;;0.85;93.76;103703.44;5014842;28;20127;-87
2023/01/24 05:18:51;;;;;;;27.48;15.30;;;;;;;0.82;94.02;103710.91;5016108;28;20076;-87
2023/01/24 05:21:18;;;;;;;27.33;15.90;;;;;;;0.82;94.28;103706.69;5015652;28;20022;-87
2023/01/24 05:23:48;;;;;;;26.70;14.90;;;;;;;0.84;95.08;103705.13;5016458;28;20033;-87
2023/01/24 05:26:19;;;;;;;28.83;15.93;;;;;;;0.80;95.12;103705.69;5016047;28;20117;-88
2023/01/24 05:28:54;;;;;;;29.58;16.10;;;;;;;0.76;94.77;103714.81;5015990;28;20479;-87
2023/01/24 05:31:34;;;;;;;28.02;15.13;;;;;;;0.79;94.75;103709.03;5015659;28;20053;-87
2023/01/24 05:34:00;;;;;;;27.55;15.38;;;;;;;0.72;94.32;103723.03;5015705;28;20032;-88
2023/01/24 05:36:37;;;;;;;27.65;15.65;;;;;;;0.70;93.93;103708.38;5015990;28;20022;-88
2023/01/24 05:39:11;;;;;;;27.38;15.85;;;;;;;0.69;94.24;103720.25;5015871;28;20018;-88
2023/01/24 05:41:36;;;;;;;26.77;15.18;;;;;;;0.70;93.95;103709.25;5016090;28;20034;-87
2023/01/24 05:44:02;;;;;;;27.20;14.63;;;;;;;0.74;94.28;103718.91;5015812;28;20029;-87
2023/01/24 05:46:29;;;;;;;28.60;15.40;;;;;;;0.72;94.65;103719.59;5016497;28;20048;-88
2023/01/24 05:49:10;;;;;;;27.35;14.80;;;;;;;0.72;95.26;103724.72;5016429;28;20029;-87
2023/01/24 05:51:53;;;;;;;26.45;14.35;;;;;;;0.69;95.01;103735.59;5016268;28;20052;-87
2023/01/24 05:54:21;;;;;;;26.73;14.80;;;;;;;0.71;95.36;103741.69;5016729;28;20033;-86
2023/01/24 05:57:01;;;;;;;26.60;15.32;;;;;;;0.70;94.94;103739.03;5014800;28;20049;-87
2023/01/24 05:59:42;;;;;;;28.73;15.77;;;;;;;0.67;94.82;103728.59;5014790;28;20558;-86
2023/01/24 06:02:23;;;;;;;27.42;14.55;;;;;;;0.63;94.83;103745.38;5015177;28;20038;-87
2023/01/24 06:05:04;;;;;;;28.88;15.98;;;;;;;0.68;94.34;103743.16;5015690;28;20026;-86
2023/01/24 06:07:41;;;;;;;27.40;15.02;;;;;;;0.67;94.36;103741.38;5015621;28;20107;-86
2023/01/24 06:10:18;;;;;;;29.00;16.05;;;;;;;0.64;94.54;103744.59;5014756;28;20103;-87
2023/01/24 06:12:44;;;;;;;27.50;15.40;;;;;;;0.63;95.09;103747.94;5014811;28;20351;-86
2023/01/24 06:15:09;;;;;;;27.88;15.20;;;;;;;0.61;95.18;103750.41;5014365;28;20044;-86
2023/01/24 06:17:37;;;;;;;28.05;15.45;;;;;;;0.61;95.19;103745.28;5013782;28;20028;-85
2023/01/24 06:20:11;;;;;;;27.15;15.20;;;;;;;0.58;95.49;103739.94;5014365;28;20108;-86
2023/01/24 06:23:02;;;;;;;27.58;15.20;;;;;;;0.65;95.87;103742.91;5014440;28;20037;-86
2023/01/24 06:25:28;;;;;;;28.15;15.75;;;;;;;0.64;95.94;103743.69;5014844;28;20478;-86
2023/01/24 06:28:14;;;;;;;27.40;15.07;;;;;;;0.65;95.81;103746.38;5014313;28;20070;-86
2023/01/24 06:30:46;;;;;;;27.05;15.40;;;;;;;0.67;95.43;103749.03;5012854;28;20052;-86
2023/01/24 06:33:35;;;;;;;28.58;15.63;;;;;;;0.63;96.03;103753.03;5014499;28;20022;-85
2023/01/24 06:36:14;;;;;;;26.38;15.13;;;;;;;0.68;95.46;103758.50;5014454;28;20033;-86
2023/01/24 06:38:40;;;;;;;28.05;15.27;;;;;;;0.66;95.73;103758.38;5013606;28;20026;-86
2023/01/24 06:41:14;;;;;;;26.73;14.45;;;;;;;0.67;96.07;103757.63;5013948;28;20045;-86
2023/01/24 06:43:40;;;;;;;27.75;15.52;;;;;;;0.64;95.98;103767.59;5014449;28;20014;-86
2023/01/24 06:46:05;;;;;;;28.27;16.48;;;;;;;0.64;96.08;103761.59;5013259;28;20026;-86
2023/01/24 06:48:30;;;;;;;28.88;16.98;;;;;;;0.60;96.38;103765.59;5014443;28;20105;-86
2023/01/24 06:50:56;;;;;;;30.35;17.08;;;;;;;0.59;96.62;103759.59;5013381;28;20065;-86
2023/01/24 06:53:21;;;;;;;28.67;16.33;;;;;;;0.64;96.41;103765.06;5013794;28;20029;-86
2023/01/24 06:55:46;;;;;;;27.10;14.77;;;;;;;0.65;96.60;103768.47;5014171;28;20407;-84
2023/01/24 06:58:12;;;;;;;30.60;17.35;;;;;;;0.54;95.92;103763.47;5013400;28;20036;-86
2023/01/24 07:00:37;;;;;;;29.70;16.85;;;;;;;0.55;96.16;103761.84;5013716;28;20026;-86
2023/01/24 07:03:06;;;;;;;28.13;15.73;;;;;;;0.57;96.46;103766.28;5013542;28;20065;-86
2023/01/24 07:05:32;;;;;;;28.55;16.27;;;;;;;0.51;96.19;103765.81;5013892;28;20430;-86
2023/01/24 07:07:58;;;;;;;30.83;17.35;;;;;;;0.51;96.05;103764.94;5012598;28;20026;-85
2023/01/24 07:10:23;;;;;;;29.02;16.30;;;;;;;0.52;96.22;103764.16;5013653;28;20052;-87
2023/01/24 07:12:48;;;;;;;27.92;15.55;;;;;;;0.54;96.55;103775.38;5014040;28;20022;-87
2023/01/24 07:15:14;;;;;;;27.52;15.38;;;;;;;0.56;96.35;103771.28;5004684;28;20376;-87
2023/01/24 07:17:39;;;;;;;29.00;15.73;;;;;;;0.52;96.55;103775.25;4994589;28;20030;-87
2023/01/24 07:20:06;;;;;;;28.80;16.15;;;;;;;0.53;96.61;103778.72;4993701;28;20026;-87
2023/01/24 07:22:32;;;;;;;28.58;15.75;;;;;;;0.53;97.00;103784.69;4994430;28;20022;-86
2023/01/24 07:24:57;;;;;;;29.50;16.63;;;;;;;0.52;97.03;103794.81;4993607;28;20023;-87
2023/01/24 07:27:23;;;;;;;30.70;17.50;;;;;;;0.52;96.90;103793.13;4993689;28;20030;-86
2023/01/24 07:29:48;;;;;;;27.80;16.40;;;;;;;0.54;96.98;103801.81;4993640;28;20037;-87
2023/01/24 07:32:14;;;;;;;30.38;17.52;;;;;;;0.55;97.04;103802.72;4993942;28;20029;-86
2023/01/24 07:34:39;;;;;;;31.23;18.38;;;;;;;0.52;97.21;103795.69;4992945;28;20030;-86
2023/01/24 07:37:08;;;;;;;30.75;17.75;;;;;;;0.55;96.97;103800.16;4993512;28;20371;-86
2023/01/24 07:39:33;;;;;;;30.30;17.42;;;;;;;0.56;97.29;103804.50;4994121;28;20038;-87
2023/01/24 07:41:59;;;;;;;30.40;17.52;;;;;;;0.52;97.45;103810.16;4993638;28;20379;-86
2023/01/24 07:44:24;;;;;;;30.27;16.92;;;;;;;0.51;97.04;103804.13;4993587;28;20356;-86
2023/01/24 07:46:49;;;;;;;28.60;16.55;;;;;;;0.45;96.95;103807.13;4993714;28;20062;-85
2023/01/24 07:49:15;;;;;;;28.98;16.13;;;;;;;0.46;96.81;103808.91;4993132;28;20117;-85
2023/01/24 07:51:40;;;;;;;29.17;16.23;;;;;;;0.48;97.07;103800.47;4993693;28;20478;-85
2023/01/24 07:54:06;;;;;;;29.40;16.58;;;;;;;0.42;96.71;103804.38;4992936;28;20031;-85
2023/01/24 07:56:31;;;;;;;29.50;17.13;;;;;;;0.41;97.03;103814.44;4992415;28;20034;-85
2023/01/24 07:58:58;;;;;;;30.23;16.88;;;;;;;0.41;97.16;103817.00;4988636;28;20479;-85
2023/01/24 08:01:26;;;;;;;31.45;18.25;;;;;;;0.40;97.06;103821.25;4991113;28;20387;-85
2023/01/24 08:03:56;;;;;;;29.25;16.67;;;;;;;0.45;97.55;103827.56;4980286;28;20042;-84
2023/01/24 08:06:22;;;;;;;30.35;17.08;;;;;;;0.46;96.88;103829.34;4991633;28;20022;-83
2023/01/24 08:08:47;;;;;;;29.95;16.33;;;;;;;0.48;96.45;103826.03;4991012;28;20386;-85
2023/01/24 08:11:15;;;;;;;29.23;16.23;;;;;;;0.48;96.61;103831.13;4991043;28;20509;-84
2023/01/24 08:13:41;;;;;;;28.27;15.48;;;;;;;0.50;96.44;103825.38;4991004;28;20038;-85
2023/01/24 08:16:07;;;;;;;28.90;15.80;;;;;;;0.48;95.81;103826.94;4989734;28;20043;-85
2023/01/24 08:18:32;;;;;;;28.85;16.15;;;;;;;0.50;96.04;103825.38;4993532;28;20030;-85
2023/01/24 08:20:57;;;;;;;28.73;15.80;;;;;;;0.50;96.67;103822.84;4993334;28;20494;-85
2023/01/24 08:23:23;;;;;;;31.27;16.77;;;;;;;0.47;96.04;103822.59;4992635;28;20035;-85
2023/01/24 08:25:48;;;;;;;28.38;15.55;;;;;;;0.53;96.13;103825.59;4992756;28;20054;-85
2023/01/24 08:28:13;;;;;;;28.08;15.50;;;;;;;0.49;95.42;103828.72;4992610;28;20023;-85
2023/01/24 08:30:38;;;;;;;29.35;15.85;;;;;;;0.48;95.70;103823.47;4992201;28;20092;-85
2023/01/24 08:33:06;;;;;;;28.73;16.17;;;;;;;0.45;96.18;103826.69;4992568;28;20084;-85
2023/01/24 08:35:31;;;;;;;29.83;16.15;;;;;;;0.46;96.34;103831.03;4993031;28;20018;-85
2023/01/24 08:37:57;;;;;;;30.02;16.90;;;;;;;0.40;96.55;103839.13;4992071;28;20025;-85
2023/01/24 08:40:23;;;;;;;32.05;17.73;;;;;;;0.37;96.38;103844.00;4992745;28;20038;-85
2023/01/24 08:42:48;;;;;;;31.00;17.20;;;;;;;0.34;96.52;103843.75;4992614;28;20018;-85
2023/01/24 08:45:13;;;;;;;30.38;16.77;;;;;;;0.45;96.76;103844.59;4993446;28;20023;-85
2023/01/24 08:47:38;;;;;;;30.02;17.17;;;;;;;0.34;95.67;103846.31;4996518;28;20014;-85
2023/01/24 08:50:04;;;;;;;30.77;16.35;;;;;;;0.35;95.62;103850.66;4995891;28;20483;-85
2023/01/24 08:52:29;;;;;;;31.27;17.10;;;;;;;0.33;95.71;103859.00;4995603;28;20030;-85
2023/01/24 08:54:55;;;;;;;29.98;16.45;;;;;;;0.38;95.75;103861.13;4996354;28;20022;-85
2023/01/24 08:57:20;;;;;;;29.13;15.80;;;;;;;0.42;96.07;103852.91;4996529;28;20117;-85
2023/01/24 08:59:45;;;;;;;30.75;17.20;;;;;;;0.35;95.21;103862.56;4995003;28;20027;-85
2023/01/24 09:02:13;;;;;;;30.98;16.90;;;;;;;0.34;95.21;103871.00;4996317;28;20026;-86
2023/01/24 09:04:39;;;;;;;29.63;16.42;;;;;;;0.38;95.53;103856.00;4995783;28;20053;-85
2023/01/24 09:07:04;;;;;;;29.92;16.95;;;;;;;0.39;95.68;103874.81;4996267;28;20026;-85
2023/01/24 09:09:30;;;;;;;29.55;16.50;;;;;;;0.38;95.33;103866.22;4996087;28;20031;-85
2023/01/24 09:11:55;;;;;;;30.17;16.42;;;;;;;0.37;95.25;103859.34;4994977;28;20050;-85
2023/01/24 09:14:21;;;;;;;30.70;16.88;;;;;;;0.25;95.18;103866.97;4996532;28;20030;-85
2023/01/24 09:16:46;;;;;;;29.88;16.80;;;;;;;0.27;95.63;103864.53;4996494;28;20502;-85
2023/01/24 09:19:12;;;;;;;30.95;17.40;;;;;;;0.23;95.29;103865.06;4995541;28;20030;-85
2023/01/24 09:21:37;;;;;;;29.55;16.75;;;;;;;0.30;95.95;103864.75;5000411;28;20034;-85
2023/01/24 09:24:03;;;;;;;29.15;15.93;;;;;;;0.32;95.66;103860.66;4998672;28;20030;-85
2023/01/24 09:26:28;;;;;;;30.38;16.65;;;;;;;0.33;95.56;103866.66;4995096;28;20035;-85
2023/01/24 09:28:55;;;;;;;31.15;17.08;;;;;;;0.35;95.63;103862.56;4995553;28;20041;-84
2023/01/24 09:31:20;;;;;;;31.08;17.20;;;;;;;0.37;96.04;103861.88;4995834;28;20081;-84
2023/01/24 09:33:46;;;;;;;31.90;17.10;;;;;;;0.41;96.00;103868.13;4995004;28;20026;-84
2023/01/24 09:36:11;;;;;;;31.40;16.65;;;;;;;0.43;95.90;103869.13;4995047;28;20045;-85
2023/01/24 09:38:36;;;;;;;31.55;16.77;;;;;;;0.46;95.73;103872.78;4994423;28;20372;-85
2023/01/24 09:41:07;;;;;;;28.83;15.15;;;;;;;0.53;95.87;103865.59;4994489;28;20217;-85
2023/01/24 09:43:46;;;;;;;28.15;15.73;;;;;;;0.52;96.01;103871.50;4995841;28;20038;-84
2023/01/24 09:46:46;;;;;;;29.05;16.33;;;;;;;0.54;95.52;103873.38;4995890;28;20097;-85
2023/01/24 09:49:32;;;;;;;28.10;14.57;;;;;;;0.58;94.98;103877.97;4982432;28;20043;-85
2023/01/24 09:51:58;;;;;;;28.20;14.48;;;;;;;0.63;94.52;103878.28;4994614;28;20444;-86
2023/01/24 09:54:33;;;;;;;27.33;14.80;;;;;;;0.62;94.21;103876.50;4994789;28;20113;-85
2023/01/24 09:56:59;;;;;;;27.15;14.15;;;;;;;0.60;93.51;103878.06;4994588;28;20031;-85
2023/01/24 09:59:38;;;;;;;29.10;15.25;;;;;;;0.55;93.55;103884.50;4994921;28;20026;-85
2023/01/24 10:02:16;;;;;;;27.70;14.43;;;;;;;0.57;93.44;103893.16;4994746;28;20104;-85
2023/01/24 10:04:43;;;;;;;29.92;15.65;;;;;;;0.57;94.49;103888.03;4995457;28;20022;-83
2023/01/24 10:07:27;;;;;;;28.48;15.25;;;;;;;0.57;94.21;103882.94;4995161;28;20386;-83
2023/01/24 10:10:17;;;;;;;27.60;15.27;;;;;;;0.61;94.51;103890.97;4994481;28;20104;-87
2023/01/24 10:12:51;;;;;;;28.52;15.40;;;;;;;0.60;94.09;103889.19;4995611;28;20037;-85
2023/01/24 10:15:43;;;;;;;28.40;15.35;;;;;;;0.59;94.01;103889.06;5001439;28;20057;-84
2023/01/24 10:18:20;;;;;;;29.58;15.85;;;;;;;0.57;94.67;103885.50;4973916;28;20038;-85
2023/01/24 10:20:45;;;;;;;28.60;15.40;;;;;;;0.62;95.31;103891.84;5013043;28;20018;-84
2023/01/24 10:23:26;;;;;;;28.63;15.07;;;;;;;0.66;94.72;103883.66;5013182;28;20489;-86
2023/01/24 10:26:01;;;;;;;28.75;15.30;;;;;;;0.67;94.70;103890.53;5014264;28;20116;-86
2023/01/24 10:28:33;;;;;;;29.00;15.75;;;;;;;0.68;94.52;103888.88;5014221;28;20114;-86
2023/01/24 10:31:05;;;;;;;30.35;16.38;;;;;;;0.65;95.00;103896.28;5012576;28;20033;-85
2023/01/24 10:33:37;;;;;;;31.10;16.17;;;;;;;0.61;93.95;103892.63;5014145;28;20542;-85
2023/01/24 10:36:32;;;;;;;28.65;15.45;;;;;;;0.58;93.92;103892.38;5013305;28;20026;-85
2023/01/24 10:38:58;;;;;;;29.38;15.38;;;;;;;0.60;94.63;103888.28;5014064;28;20033;-85
2023/01/24 10:41:25;;;;;;;27.38;14.70;;;;;;;0.60;93.45;103888.28;5013945;28;20482;-85
2023/01/24 10:43:59;;;;;;;26.88;14.30;;;;;;;0.64;93.65;103879.16;5012941;28;20029;-85
2023/01/24 10:47:09;;;;;;;27.77;15.25;;;;;;;0.66;93.83;103882.75;4996610;28;20019;-84
2023/01/24 10:49:37;;;;;;;27.70;14.65;;;;;;;0.70;93.05;103885.63;4934935;28;20080;-85
2023/01/24 10:52:12;;;;;;;26.90;14.38;;;;;;;0.70;93.12;103879.66;5012906;28;20025;-85
2023/01/24 10:54:53;;;;;;;27.73;15.10;;;;;;;0.68;92.07;103883.75;5014015;28;20049;-85
2023/01/24 10:57:21;;;;;;;27.13;13.82;;;;;;;0.64;92.39;103884.28;5012686;28;20104;-85
2023/01/24 10:59:46;;;;;;;27.40;14.55;;;;;;;0.62;92.15;103886.75;5012988;28;20053;-85
2023/01/24 11:02:21;;;;;;;26.27;14.05;;;;;;;0.64;91.73;103885.19;5013771;28;20100;-85
2023/01/24 11:04:46;;;;;;;25.40;13.60;;;;;;;0.63;92.20;103883.41;5012244;28;20463;-84
2023/01/24 11:07:31;;;;;;;27.17;14.68;;;;;;;0.58;91.61;103883.06;5013062;28;20037;-84
2023/01/24 11:10:05;;;;;;;26.15;14.20;;;;;;;0.61;92.15;103874.72;5011687;28;20065;-84
2023/01/24 11:12:31;;;;;;;26.92;14.45;;;;;;;0.58;91.50;103869.38;5011794;28;20030;-84
2023/01/24 11:14:56;;;;;;;26.77;14.30;;;;;;;0.55;91.51;103867.50;5010748;28;20510;-84
2023/01/24 11:17:38;;;;;;;27.15;14.77;;;;;;;0.50;91.40;103873.94;5011838;28;20030;-85
2023/01/24 11:20:30;;;;;;;27.27;14.80;;;;;;;0.43;91.36;103864.91;5010818;28;20121;-84
2023/01/24 11:23:16;;;;;;;27.40;14.02;;;;;;;0.47;92.14;103858.38;5012159;28;20390;-85
2023/01/24 11:26:01;;;;;;;27.02;14.40;;;;;;;0.49;91.71;103864.50;5013249;28;20022;-85
2023/01/24 11:28:37;;;;;;;27.50;14.48;;;;;;;0.46;91.52;103860.03;5013522;28;20022;-84
2023/01/24 11:31:06;;;;;;;26.52;14.65;;;;;;;0.49;91.84;103853.38;5013235;28;20029;-84
2023/01/24 11:33:37;;;;;;;27.23;13.93;;;;;;;0.54;91.70;103852.94;5012645;28;20030;-84
2023/01/24 11:36:16;;;;;;;25.65;13.63;;;;;;;0.58;91.74;103849.84;5013286;28;20033;-85
2023/01/24 11:38:43;;;;;;;25.33;13.80;;;;;;;0.61;91.63;103846.63;5013185;28;20041;-84
2023/01/24 11:41:26;;;;;;;26.20;14.05;;;;;;;0.58;91.15;103848.94;5012191;28;20033;-84
2023/01/24 11:44:16;;;;;;;25.45;13.48;;;;;;;0.62;91.63;103835.63;5012858;28;20022;-84
2023/01/24 11:47:00;;;;;;;24.20;13.07;;;;;;;0.62;91.27;103835.63;5012840;28;20030;-85
2023/01/24 11:49:48;;;;;;;26.90;13.63;;;;;;;0.69;91.56;103831.84;5013014;28;20045;-85
2023/01/24 11:52:34;;;;;;;25.23;13.68;;;;;;;0.69;91.03;103832.72;5013722;28;20045;-84
2023/01/24 11:55:11;;;;;;;;;;;;;;;0.73;91.45;103839.84;5012420;28;20474;-84
2023/01/24 11:58:05;;;;;;;27.05;14.50;;;;;;;0.69;90.88;103829.28;5012909;28;19948;-84
2023/01/24 12:00:51;;;;;;;25.65;13.57;;;;;;;0.76;91.88;103832.41;4977145;28;20073;-84
2023/01/24 12:03:43;;;;;;;26.10;13.75;;;;;;;0.81;91.43;103831.84;5013269;28;20029;-85
2023/01/24 12:06:28;;;;;;;25.25;13.05;;;;;;;0.81;90.45;103826.72;5012586;28;20036;-84
2023/01/24 12:09:09;;;;;;;25.48;13.45;;;;;;;0.69;90.01;103817.38;5011676;28;20029;-85